Time;durP1;ratioP1;P1;durP2;ratioP2;P2;SDS_P1;SDS_P2;PMS_P1;PMS_P2;Temp;Humidity;BMP_temperature;BMP_pressure;BME280_temperature;BME280_humidity;BME280_pressure;Samples;Min_cycle;Max_cycle;Signal;HPM_P1;HPM_P2
2022/04/19 00:02:01;;;;;;;;;5.75;5.00;;;;;21.72;33.16;101032.03;4975018;28;45271;-60
2022/04/19 00:04:27;;;;;;;;;4.00;4.00;;;;;21.71;33.21;101032.16;4975256;28;45641;-62
2022/04/19 00:06:52;;;;;;;;;7.00;6.00;;;;;21.71;33.46;101032.16;4974897;28;45777;-61
2022/04/19 00:09:18;;;;;;;;;4.75;3.75;;;;;21.70;32.98;101033.06;4975329;28;45438;-62
2022/04/19 00:11:43;;;;;;;;;4.00;4.00;;;;;21.69;33.52;101028.75;4975200;28;45367;-64
2022/04/19 00:14:08;;;;;;;;;3.25;3.25;;;;;21.68;33.31;101025.25;4973760;28;45320;-69
2022/04/19 00:16:36;;;;;;;;;4.50;4.50;;;;;21.67;33.22;101022.69;4974695;28;45404;-61
2022/04/19 00:19:02;;;;;;;;;6.75;3.75;;;;;21.67;33.11;101017.41;4974426;28;45728;-63
2022/04/19 00:21:27;;;;;;;;;5.00;4.00;;;;;21.66;33.06;101015.75;4974781;28;45181;-61
2022/04/19 00:23:53;;;;;;;;;4.00;4.00;;;;;21.65;33.25;101016.69;4975027;28;45203;-61
2022/04/19 00:26:19;;;;;;;;;4.00;4.00;;;;;21.64;33.18;101014.97;4957377;28;47025;-62
2022/04/19 00:28:45;;;;;;;;;3.00;2.50;;;;;21.62;33.27;101021.19;4973773;28;45366;-63
2022/04/19 00:31:11;;;;;;;;;4.00;4.00;;;;;21.64;33.20;101022.91;4974619;28;45236;-66
2022/04/19 00:33:42;;;;;;;;;4.00;4.00;;;;;21.61;33.33;101014.22;4974685;28;45409;-65
2022/04/19 00:36:08;;;;;;;;;3.75;3.75;;;;;21.61;33.26;101022.13;4974408;28;47304;-62
2022/04/19 00:38:33;;;;;;;;;6.00;4.00;;;;;21.61;33.29;101018.63;4974425;28;45267;-66
2022/04/19 00:40:58;;;;;;;;;6.50;2.75;;;;;21.59;33.14;101010.81;4974440;28;45251;-67
2022/04/19 00:43:26;;;;;;;;;3.25;3.25;;;;;21.59;33.42;101020.53;4974633;28;45561;-61
2022/04/19 00:45:51;;;;;;;;;3.00;3.00;;;;;21.58;33.06;101011.72;4974564;28;46207;-59
2022/04/19 00:48:17;;;;;;;;;4.00;4.00;;;;;21.58;33.59;101014.34;4974447;28;45408;-69
2022/04/19 00:50:43;;;;;;;;;4.00;4.00;;;;;21.58;33.38;101003.78;4989582;28;45355;-63
2022/04/19 00:53:11;;;;;;;;;4.50;4.50;;;;;21.55;33.48;101008.41;4974530;28;45657;-67
2022/04/19 00:55:38;;;;;;;;;5.50;3.75;;;;;21.54;33.50;101001.44;4973200;28;46732;-70
2022/04/19 00:58:06;;;;;;;;;4.00;3.00;;;;;21.54;33.21;100999.66;4974058;28;46387;-71
2022/04/19 01:00:31;;;;;;;;;3.00;2.00;;;;;21.52;32.95;100998.88;4974332;28;45413;-63
2022/04/19 01:02:57;;;;;;;;;4.00;4.00;;;;;21.54;33.42;101001.44;4974519;28;45381;-60
2022/04/19 01:05:22;;;;;;;;;4.00;3.25;;;;;21.53;33.35;101008.50;4974400;28;45441;-63
2022/04/19 01:07:47;;;;;;;;;5.25;5.00;;;;;21.53;33.44;101010.28;4973952;28;45359;-62
2022/04/19 01:10:13;;;;;;;;;3.50;3.50;;;;;21.52;33.25;101000.66;4974198;28;45432;-63
2022/04/19 01:15:22;;;;;;;;;3.00;3.00;;;;;21.51;33.24;101001.59;4974173;28;45395;-64
2022/04/19 01:17:48;;;;;;;;;2.50;2.25;;;;;21.50;33.07;101008.66;4973861;28;45305;-62
2022/04/19 01:20:13;;;;;;;;;6.00;3.00;;;;;21.49;32.90;101000.84;4972600;28;45414;-61
2022/04/19 01:22:40;;;;;;;;;3.00;3.00;;;;;21.49;32.98;100999.06;4974031;28;45388;-62
2022/04/19 01:25:07;;;;;;;;;3.25;3.00;;;;;21.47;33.00;100996.50;4973855;28;46448;-61
2022/04/19 01:27:33;;;;;;;;;5.00;4.00;;;;;21.49;33.24;101008.75;4973714;28;45246;-61
2022/04/19 01:30:03;;;;;;;;;2.50;2.50;;;;;21.47;32.96;101000.91;4972579;28;45283;-62
2022/04/19 01:32:29;;;;;;;;;4.00;3.00;;;;;21.46;33.11;100993.94;4974085;28;45366;-64
2022/04/19 01:35:15;;;;;;;;;2.50;2.00;;;;;21.46;32.89;100999.22;4973713;28;46192;-66
2022/04/19 01:37:44;;;;;;;;;4.25;2.25;;;;;21.45;33.19;100990.47;4973494;28;45902;-61
2022/04/19 01:40:16;;;;;;;;;3.25;3.00;;;;;21.44;32.99;100990.56;4973019;28;45340;-65
2022/04/19 01:42:50;;;;;;;;;3.75;3.00;;;;;21.41;32.98;100983.66;4977079;28;45239;-61
2022/04/19 01:45:20;;;;;;;;;3.50;3.50;;;;;21.43;33.28;100988.88;4976467;28;46363;-62
2022/04/19 01:47:46;;;;;;;;;2.75;2.75;;;;;21.42;32.87;100987.16;4976506;28;45773;-66
2022/04/19 01:50:15;;;;;;;;;3.50;3.00;;;;;21.41;32.80;100988.09;4976733;28;45949;-62
2022/04/19 01:52:41;;;;;;;;;4.50;3.00;;;;;21.41;33.06;100990.72;4976823;28;45674;-63
2022/04/19 01:55:09;;;;;;;;;4.00;3.75;;;;;21.40;33.43;100992.50;4976398;28;45386;-63
2022/04/19 01:57:37;;;;;;;;;3.00;3.00;;;;;21.39;33.08;100989.97;4976336;28;45752;-64
2022/04/19 02:00:05;;;;;;;;;2.00;2.00;;;;;21.39;33.03;100989.97;4975248;28;45450;-63
2022/04/19 02:02:30;;;;;;;;;2.50;2.50;;;;;21.39;32.90;100992.59;4975304;28;45424;-63
2022/04/19 02:04:56;;;;;;;;;3.00;3.00;;;;;21.38;33.11;100986.50;4976529;28;46037;-65
2022/04/19 02:07:21;;;;;;;;;7.00;3.50;;;;;21.38;32.78;100989.13;4976229;28;45477;-64
2022/04/19 02:09:47;;;;;;;;;3.00;3.00;;;;;21.37;32.95;100989.19;4976409;28;45413;-63
2022/04/19 02:12:13;;;;;;;;;4.50;3.50;;;;;21.37;33.06;100989.19;4976540;28;45607;-68
2022/04/19 02:14:41;;;;;;;;;3.00;3.00;;;;;21.36;32.84;100987.50;4976024;28;45521;-67
2022/04/19 02:17:09;;;;;;;;;3.25;3.00;;;;;21.36;32.98;100984.84;4976126;28;45422;-65
2022/04/19 02:19:35;;;;;;;;;4.25;3.25;;;;;21.35;32.87;100988.44;4976122;28;45472;-68
2022/04/19 02:22:00;;;;;;;;;3.00;3.00;;;;;21.34;33.39;100981.44;4976430;28;45583;-66
2022/04/19 02:24:26;;;;;;;;;1.00;1.00;;;;;21.35;32.71;100985.78;4976355;28;45316;-63
2022/04/19 02:26:51;;;;;;;;;2.00;2.00;;;;;21.33;33.12;100983.25;4975744;28;52218;-65
2022/04/19 02:29:16;;;;;;;;;3.00;3.00;;;;;21.34;32.75;100984.09;4976034;28;45233;-65
2022/04/19 02:31:42;;;;;;;;;2.75;2.00;;;;;21.33;32.86;100988.53;4976383;28;45628;-62
2022/04/19 02:34:07;;;;;;;;;2.50;2.00;;;;;21.33;33.30;100985.88;4975706;28;45346;-60
2022/04/19 02:36:32;;;;;;;;;4.00;3.00;;;;;21.33;32.71;100979.78;4975950;28;45320;-61
2022/04/19 02:38:59;;;;;;;;;3.00;3.00;;;;;21.33;32.80;100979.78;4976179;28;45261;-63
2022/04/19 02:41:25;;;;;;;;;3.00;3.00;;;;;21.32;33.23;100976.28;4976555;28;45614;-68
2022/04/19 02:43:50;;;;;;;;;3.00;3.00;;;;;21.31;33.06;100975.44;4975737;28;46658;-69
2022/04/19 02:46:16;;;;;;;;;4.00;4.00;;;;;21.31;32.94;100972.81;4975893;28;45371;-64
2022/04/19 02:48:41;;;;;;;;;3.00;3.00;;;;;21.30;32.57;100975.50;4976050;28;45346;-68
2022/04/19 02:51:06;;;;;;;;;3.00;2.00;;;;;21.31;33.14;100982.47;4975657;28;45413;-66
2022/04/19 02:53:32;;;;;;;;;4.00;2.00;;;;;21.30;33.12;100976.38;4975568;28;45474;-69
2022/04/19 02:55:59;;;;;;;;;3.75;2.00;;;;;21.29;32.57;100977.31;4976027;28;45321;-63
2022/04/19 02:58:25;;;;;;;;;3.50;3.00;;;;;21.29;33.00;100977.31;4975810;28;45326;-65
2022/04/19 03:00:50;;;;;;;;;2.50;2.25;;;;;21.29;32.47;100976.44;4975849;28;45908;-65
2022/04/19 03:03:16;;;;;;;;;3.75;3.00;;;;;21.28;32.99;100967.69;4975505;28;45695;-61
2022/04/19 03:05:41;;;;;;;;;3.00;3.00;;;;;21.28;32.86;100972.09;4974580;28;45445;-68
2022/04/19 03:08:08;;;;;;;;;4.25;3.75;;;;;21.28;33.01;100974.75;4975729;28;45314;-66
2022/04/19 03:10:33;;;;;;;;;2.50;1.50;;;;;21.28;32.80;100974.75;4975949;28;45492;-67
2022/04/19 03:12:59;;;;;;;;;2.75;2.25;;;;;21.27;32.67;100968.63;4975664;28;45366;-64
2022/04/19 03:15:24;;;;;;;;;2.00;2.00;;;;;21.28;32.36;100972.09;4975589;28;45173;-68
2022/04/19 03:17:49;;;;;;;;;3.75;3.75;;;;;21.27;32.88;100963.34;4975315;28;45189;-68
2022/04/19 03:20:15;;;;;;;;;2.00;2.00;;;;;21.27;32.69;100965.16;4974453;28;45615;-67
2022/04/19 03:28:12;;;;;;;;;3.00;3.00;;;;;21.26;32.46;100968.72;4975522;28;45346;-61
2022/04/19 03:30:38;;;;;;;;;7.00;5.00;;;;;21.25;32.57;100959.94;4975787;28;45310;-63
2022/04/19 03:33:04;;;;;;;;;5.00;5.00;;;;;21.25;32.67;100964.38;4975416;28;46545;-65
2022/04/19 03:35:29;;;;;;;;;9.00;7.25;;;;;21.24;32.51;100963.53;4975682;28;45394;-68
2022/04/19 03:37:54;;;;;;;;;7.25;4.75;;;;;21.24;32.72;100957.41;4975344;28;45414;-67
2022/04/19 03:40:20;;;;;;;;;5.75;5.75;;;;;21.23;32.71;100956.53;4975121;28;51038;-62
2022/04/19 03:42:45;;;;;;;;;6.00;6.00;;;;;21.22;32.89;100956.66;4975077;28;45436;-62
2022/04/19 03:45:11;;;;;;;;;5.00;4.75;;;;;21.21;32.69;100953.19;4975218;28;45354;-62
2022/04/19 03:47:37;;;;;;;;;6.75;5.00;;;;;21.24;32.65;100957.41;4975301;28;45327;-60
2022/04/19 03:50:04;;;;;;;;;5.50;5.50;;;;;21.23;32.47;100956.53;4974505;28;45590;-63
2022/04/19 03:52:30;;;;;;;;;6.25;5.25;;;;;21.22;32.54;100954.00;4975164;28;45890;-63
2022/04/19 03:54:55;;;;;;;;;6.00;5.25;;;;;21.20;32.72;100951.47;4974977;28;45272;-62
2022/04/19 03:57:21;;;;;;;;;5.00;4.00;;;;;21.21;32.58;100955.81;4975082;28;45212;-63
2022/04/19 03:59:46;;;;;;;;;5.00;5.00;;;;;21.21;33.09;100947.03;4975333;28;45430;-64
2022/04/19 04:02:11;;;;;;;;;4.25;4.25;;;;;21.20;32.89;100945.34;4974674;28;47209;-66
2022/04/19 04:04:37;;;;;;;;;4.00;4.00;;;;;21.19;32.71;100944.50;4973878;28;54690;-63
2022/04/19 04:07:04;;;;;;;;;5.25;3.00;;;;;21.19;32.97;100941.88;4975148;28;45439;-65
2022/04/19 04:09:32;;;;;;;;;4.00;3.00;;;;;21.19;32.66;100944.50;4975454;28;45477;-66
2022/04/19 04:12:09;;;;;;;;;4.75;4.75;;;;;21.18;33.20;100942.78;4974714;28;46256;-66
2022/04/19 04:14:35;;;;;;;;;3.00;3.00;;;;;21.18;32.55;100953.34;4974921;28;45802;-61
2022/04/19 04:17:01;;;;;;;;;6.00;4.75;;;;;21.19;32.80;100948.91;4975170;28;45343;-65
2022/04/19 04:19:26;;;;;;;;;3.75;3.25;;;;;21.18;32.94;100948.06;4974896;28;45386;-64
2022/04/19 04:21:51;;;;;;;;;4.00;3.25;;;;;21.17;33.32;100947.19;4974629;28;45253;-66
2022/04/19 04:24:19;;;;;;;;;3.75;3.25;;;;;21.18;32.59;100940.16;4974690;28;45520;-67
2022/04/19 04:26:45;;;;;;;;;5.75;4.50;;;;;21.17;32.71;100944.56;4973581;28;45352;-66
2022/04/19 04:29:10;;;;;;;;;5.00;5.00;;;;;21.17;32.85;100952.47;4974931;28;45333;-66
2022/04/19 04:31:36;;;;;;;;;3.00;3.00;;;;;21.16;32.54;100945.53;4974619;28;46001;-64
2022/04/19 04:34:02;;;;;;;;;2.00;2.00;;;;;21.16;32.86;100942.03;4974729;28;45432;-64
2022/04/19 04:36:27;;;;;;;;;3.00;3.00;;;;;21.15;32.93;100938.56;4974705;28;45402;-65
2022/04/19 04:38:53;;;;;;;;;3.00;3.00;;;;;21.16;32.93;100944.66;4974753;28;45369;-63
2022/04/19 04:41:18;;;;;;;;;3.00;3.00;;;;;21.15;32.86;100949.09;4974479;28;46189;-66
2022/04/19 04:43:43;;;;;;;;;4.00;4.00;;;;;21.15;32.41;100945.59;4974376;28;45421;-63
2022/04/19 04:51:37;;;;;;;;;4.25;3.75;;;;;21.14;33.05;100957.06;4974362;28;45217;-62
2022/04/19 04:54:03;;;;;;;;;3.25;3.25;;;;;21.14;32.56;100959.72;4974604;28;45249;-64
2022/04/19 04:56:29;;;;;;;;;2.00;2.00;;;;;21.14;32.50;100957.06;4974602;28;45258;-62
2022/04/19 04:58:54;;;;;;;;;4.00;4.00;;;;;21.14;32.48;100962.34;4973109;28;45685;-63
2022/04/19 05:01:19;;;;;;;;;3.25;2.25;;;;;21.11;32.77;100958.09;4974133;28;49687;-65
2022/04/19 05:03:45;;;;;;;;;4.00;3.25;;;;;21.12;32.48;100966.84;4973801;28;56182;-66
2022/04/19 05:06:10;;;;;;;;;3.25;2.50;;;;;21.13;32.44;100968.53;4974340;28;45508;-65
2022/04/19 05:08:35;;;;;;;;;3.00;3.00;;;;;21.12;32.75;100970.34;4974672;28;45200;-67
2022/04/19 05:11:00;;;;;;;;;2.25;2.25;;;;;21.12;32.70;100967.72;4974095;28;48055;-65
2022/04/19 05:13:26;;;;;;;;;3.00;3.00;;;;;21.13;32.72;100969.41;4974004;28;45181;-64
2022/04/19 05:15:51;;;;;;;;;4.25;4.25;;;;;21.11;32.75;100970.44;4973939;28;45856;-66
2022/04/19 05:18:17;;;;;;;;;2.00;2.00;;;;;21.11;32.56;100968.63;4974265;28;45258;-66
2022/04/19 05:20:43;;;;;;;;;4.25;3.00;;;;;21.12;32.75;100974.75;4973733;28;45826;-65
2022/04/19 05:23:09;;;;;;;;;2.25;2.25;;;;;21.11;32.33;100968.63;4973877;28;45492;-66
2022/04/19 05:25:34;;;;;;;;;3.00;3.00;;;;;21.11;32.38;100968.63;4974277;28;45359;-66
2022/04/19 05:27:59;;;;;;;;;1.50;1.50;;;;;21.12;32.88;100969.47;4974168;28;45557;-63
2022/04/19 05:30:25;;;;;;;;;3.00;1.50;;;;;21.11;32.86;100973.06;4973377;28;45447;-64
2022/04/19 05:32:50;;;;;;;;;2.00;2.00;;;;;21.10;32.76;100966.94;4973700;28;45504;-61
2022/04/19 05:35:15;;;;;;;;;3.00;1.50;;;;;21.11;32.83;100965.16;4973750;28;45322;-62
2022/04/19 05:37:40;;;;;;;;;4.25;3.00;;;;;21.10;32.57;100966.94;4973717;28;45313;-64
2022/04/19 05:40:07;;;;;;;;;3.00;3.00;;;;;21.11;32.67;100962.53;4973607;28;52508;-63
2022/04/19 05:42:32;;;;;;;;;2.00;2.00;;;;;21.09;32.68;100959.13;4973448;28;45330;-62
2022/04/19 05:44:58;;;;;;;;;2.50;2.50;;;;;21.09;32.76;100964.41;4973433;28;45232;-60
2022/04/19 05:47:23;;;;;;;;;2.00;2.00;;;;;21.12;32.79;100966.84;4972537;28;45640;-59
2022/04/19 05:49:49;;;;;;;;;2.00;2.00;;;;;21.13;32.98;100973.81;4973401;28;45387;-60
2022/04/19 05:52:14;;;;;;;;;4.00;3.00;;;;;21.14;32.73;100976.38;4973440;28;45511;-62
2022/04/19 05:54:39;;;;;;;;;3.00;3.00;;;;;21.14;32.81;100971.13;4973612;28;45204;-63
2022/04/19 05:57:05;;;;;;;;;1.75;1.75;;;;;21.15;33.20;100975.44;4973805;28;45331;-63
2022/04/19 05:59:30;;;;;;;;;4.00;2.25;;;;;21.15;32.67;100964.03;4972976;28;46285;-61
2022/04/19 06:04:56;;;;;;;;;1.00;1.00;;;;;21.14;33.14;100963.22;5060489;28;45184;-62
2022/04/19 06:07:26;;;;;;;;;4.00;3.00;;;;;21.13;33.24;100961.50;4989259;27;45418;-59
2022/04/19 06:09:51;;;;;;;;;4.00;2.00;;;;;21.15;32.92;100967.53;4972442;28;47096;-62
2022/04/19 06:12:17;;;;;;;;;2.00;2.00;;;;;21.16;32.95;100969.25;4972737;28;45359;-59
2022/04/19 06:14:43;;;;;;;;;4.50;3.00;;;;;21.16;33.10;100968.38;4972930;28;45320;-69
2022/04/19 06:17:13;;;;;;;;;2.25;2.25;;;;;21.19;33.16;100970.84;4973468;28;45421;-63
2022/04/19 06:19:39;;;;;;;;;3.50;2.00;;;;;21.17;33.33;100973.56;4971294;28;46935;-55
2022/04/19 06:22:05;;;;;;;;;2.00;2.00;;;;;21.19;33.20;100976.13;4972813;28;45273;-57
2022/04/19 06:24:30;;;;;;;;;3.75;2.25;;;;;21.22;33.27;100977.72;4973095;28;45220;-60
2022/04/19 06:26:56;;;;;;;;;1.25;1.25;;;;;21.21;32.91;100969.00;4974874;28;45312;-59
2022/04/19 06:29:21;;;;;;;;;1.25;1.25;;;;;21.23;33.10;100975.00;4975880;28;45423;-59
2022/04/19 06:31:46;;;;;;;;;4.00;2.00;;;;;21.23;33.15;100982.91;4975537;28;45367;-57
2022/04/19 06:34:12;;;;;;;;;3.00;2.00;;;;;21.23;32.97;100977.63;4976141;28;45362;-59
2022/04/19 06:36:38;;;;;;;;;2.00;2.00;;;;;21.22;33.25;100977.72;4976494;28;45299;-66
2022/04/19 06:39:04;;;;;;;;;2.00;2.00;;;;;21.24;33.00;100979.34;4975591;28;46241;-60
2022/04/19 06:41:29;;;;;;;;;3.00;1.00;;;;;21.25;33.21;100981.03;4975511;28;45508;-54
2022/04/19 06:43:57;;;;;;;;;2.00;1.75;;;;;21.25;33.47;100978.41;4975805;28;45341;-62
2022/04/19 06:46:25;;;;;;;;;1.00;1.00;;;;;21.25;33.03;100975.78;4976202;28;45622;-49
2022/04/19 06:48:56;;;;;;;;;1.25;1.25;;;;;21.26;32.90;100974.00;4975615;28;46185;-61
2022/04/19 06:51:22;;;;;;;;;4.00;2.00;;;;;21.24;33.42;100963.53;4976126;28;45542;-62
2022/04/19 06:53:48;;;;;;;;;1.50;1.00;;;;;21.27;33.54;100970.44;4976040;28;45426;-55
2022/04/19 06:56:14;;;;;;;;;2.00;1.00;;;;;21.29;33.46;100971.16;4975918;28;45347;-61
2022/04/19 06:58:40;;;;;;;;;1.00;1.00;;;;;21.28;33.15;100972.97;4975675;28;45340;-58
2022/04/19 07:01:06;;;;;;;;;1.00;1.00;;;;;21.29;33.09;100972.03;4974205;28;45412;-59
2022/04/19 07:03:33;;;;;;;;;2.00;2.00;;;;;21.29;33.41;100972.03;4973875;28;45416;-57
2022/04/19 07:05:59;;;;;;;;;1.00;1.00;;;;;21.29;33.18;100974.66;4975713;28;45479;-62
2022/04/19 07:08:24;;;;;;;;;3.75;2.25;;;;;21.30;33.48;100978.16;4968868;28;45961;-67
2022/04/19 07:10:49;;;;;;;;;4.00;2.00;;;;;21.29;33.18;100977.31;4955620;28;45399;-52
2022/04/19 07:13:15;;;;;;;;;1.00;1.00;;;;;21.30;33.19;100972.88;4954321;28;54104;-66
2022/04/19 07:15:40;;;;;;;;;1.25;1.25;;;;;21.30;33.40;100979.00;4956202;28;45316;-64
2022/04/19 07:18:06;;;;;;;;;2.00;1.00;;;;;21.30;33.38;100973.75;4955309;28;46007;-65
2022/04/19 07:28:43;;;;;;;;;2.75;2.75;;;;;21.33;32.92;100969.22;4955897;28;45718;-59
2022/04/19 07:31:08;;;;;;;;;3.50;3.25;;;;;21.32;33.32;100971.00;4955732;28;45327;-69
2022/04/19 07:33:38;;;;;;;;;3.25;2.00;;;;;21.31;33.44;100964.91;4955376;28;45384;-63
2022/04/19 07:36:07;;;;;;;;;1.25;1.25;;;;;21.31;33.08;100962.25;4954891;28;45270;-57
2022/04/19 07:38:33;;;;;;;;;2.00;2.00;;;;;21.30;33.48;100971.09;4954180;28;45462;-60
2022/04/19 07:40:58;;;;;;;;;2.75;2.00;;;;;21.28;33.07;100970.34;4954025;28;45447;-61
2022/04/19 07:43:24;;;;;;;;;2.00;2.00;;;;;21.29;33.42;100960.63;4955693;28;45376;-64
2022/04/19 07:45:49;;;;;;;;;5.00;2.00;;;;;21.30;33.28;100975.50;4955352;28;45608;-58
2022/04/19 07:48:15;;;;;;;;;4.00;2.75;;;;;21.28;33.00;100970.34;4955366;28;46190;-62
2022/04/19 07:50:42;;;;;;;;;3.25;2.00;;;;;21.30;33.48;100968.47;4954075;28;45379;-68
2022/04/19 07:53:08;;;;;;;;;3.50;2.00;;;;;21.32;33.04;100971.00;4954066;28;45395;-64
2022/04/19 07:55:34;;;;;;;;;6.00;1.25;;;;;21.33;33.17;100977.16;4955564;28;45775;-60
2022/04/19 07:57:59;;;;;;;;;2.75;2.25;;;;;21.34;33.11;100969.13;4957210;28;46080;-65
2022/04/19 08:00:27;;;;;;;;;3.75;2.75;;;;;21.35;33.24;100964.69;4974537;28;45436;-62
2022/04/19 08:02:54;;;;;;;;;5.25;3.00;;;;;21.35;33.54;100960.28;4973495;28;45558;-62
2022/04/19 08:05:19;;;;;;;;;3.50;2.00;;;;;21.34;33.12;100953.31;4973821;28;45405;-61
2022/04/19 08:07:48;;;;;;;;;3.50;3.00;;;;;21.36;33.59;100961.13;4974325;28;46581;-58
2022/04/19 08:10:13;;;;;;;;;4.00;2.75;;;;;21.36;33.26;100956.72;4974695;28;45307;-61
2022/04/19 08:12:38;;;;;;;;;3.00;3.00;;;;;21.37;33.64;100957.56;4974421;28;45339;-61
2022/04/19 08:15:04;;;;;;;;;5.00;2.00;;;;;21.38;33.21;100959.25;4973248;28;45580;-61
2022/04/19 08:17:32;;;;;;;;;1.25;1.25;;;;;21.37;33.44;100960.19;4974253;28;45279;-61
2022/04/19 08:19:57;;;;;;;;;3.00;3.00;;;;;21.37;33.21;100961.06;4972762;28;45522;-62
2022/04/19 08:22:23;;;;;;;;;4.00;3.50;;;;;21.38;33.19;100959.25;4974141;28;45401;-66
2022/04/19 08:24:49;;;;;;;;;4.00;4.00;;;;;21.39;33.55;100953.06;4974650;28;45563;-59
2022/04/19 08:27:16;;;;;;;;;6.00;3.00;;;;;21.39;33.43;100967.06;4974558;28;46143;-63
2022/04/19 08:29:43;;;;;;;;;4.00;3.00;;;;;21.35;33.37;100955.03;4974486;28;46050;-61
2022/04/19 08:32:08;;;;;;;;;3.00;3.00;;;;;21.40;33.25;100962.66;4974285;28;45268;-61
2022/04/19 08:34:33;;;;;;;;;3.50;3.50;;;;;21.40;33.04;100958.22;4974497;28;45628;-60
2022/04/19 08:36:59;;;;;;;;;3.25;3.00;;;;;21.40;33.53;100962.66;4974205;28;45461;-61
2022/04/19 08:39:24;;;;;;;;;3.75;3.00;;;;;21.41;33.10;100959.09;4974039;28;45205;-60
2022/04/19 08:41:49;;;;;;;;;3.00;1.75;;;;;21.41;33.41;100953.81;4972847;28;45327;-60
2022/04/19 08:44:15;;;;;;;;;5.75;4.00;;;;;21.42;33.50;100955.53;4973493;28;45440;-55
2022/04/19 08:46:42;;;;;;;;;3.50;2.00;;;;;21.42;33.39;100950.25;4974355;28;45671;-57
2022/04/19 08:49:09;;;;;;;;;3.25;3.00;;;;;21.44;33.54;100953.66;4973245;28;45460;-61
2022/04/19 08:51:36;;;;;;;;;3.00;3.00;;;;;21.44;33.47;100953.66;4973964;28;45480;-60
2022/04/19 08:59:31;;;;;;;;;3.00;3.00;;;;;21.44;33.34;100951.84;4973812;28;45539;-61
2022/04/19 09:01:58;;;;;;;;;4.00;3.00;;;;;21.45;33.40;100939.50;4973630;28;45493;-60
2022/04/19 09:04:25;;;;;;;;;4.00;4.00;;;;;21.46;33.39;100946.47;4974230;28;45422;-59
2022/04/19 09:06:54;;;;;;;;;5.50;2.50;;;;;21.46;33.13;100946.47;4973855;28;46419;-64
2022/04/19 09:09:23;;;;;;;;;5.00;3.00;;;;;21.46;33.47;100936.78;4973801;28;45417;-63
2022/04/19 09:11:48;;;;;;;;;3.00;3.00;;;;;21.47;33.13;100932.34;4973689;28;45292;-68
2022/04/19 09:14:13;;;;;;;;;4.75;2.25;;;;;21.47;33.36;100938.50;4974391;28;45285;-56
2022/04/19 09:16:40;;;;;;;;;2.50;2.50;;;;;21.49;33.52;100934.94;4973927;28;45838;-60
2022/04/19 09:19:08;;;;;;;;;3.00;2.00;;;;;21.51;33.26;100939.16;4972301;28;45282;-53
2022/04/19 09:21:38;;;;;;;;;3.50;3.50;;;;;21.50;33.43;100940.09;4973449;28;45532;-53
2022/04/19 09:24:21;;;;;;;;;2.25;2.25;;;;;21.52;33.30;100951.41;4974081;28;45330;-59
2022/04/19 09:26:48;;;;;;;;;3.25;3.25;;;;;21.51;33.19;100931.25;4974139;28;45518;-59
2022/04/19 09:29:24;;;;;;;;;3.25;3.25;;;;;21.52;33.42;100938.22;4974053;28;45315;-54
2022/04/19 09:31:52;;;;;;;;;3.00;3.00;;;;;21.52;32.96;100938.22;4975011;28;45387;-60
2022/04/19 09:34:28;;;;;;;;;6.00;4.75;;;;;21.53;32.95;100932.03;4972234;28;45491;-54
2022/04/19 09:37:08;;;;;;;;;6.00;3.50;;;;;21.52;33.26;100930.31;4973359;28;45406;-48
2022/04/19 09:39:37;;;;;;;;;2.75;2.75;;;;;21.53;33.44;100926.75;4973284;28;45699;-65
2022/04/19 09:42:05;;;;;;;;;3.50;3.00;;;;;21.52;33.41;100930.31;4973441;28;45704;-60
2022/04/19 09:44:36;;;;;;;;;2.25;2.25;;;;;21.53;32.96;100918.84;4973664;28;45416;-58
2022/04/19 09:47:07;;;;;;;;;2.50;2.50;;;;;21.54;33.49;100920.53;4973351;28;45327;-64
2022/04/19 09:49:54;;;;;;;;;5.50;3.00;;;;;21.55;33.47;100918.72;4972023;28;45260;-52
2022/04/19 09:52:22;;;;;;;;;3.00;3.00;;;;;21.54;33.11;100924.94;4973202;28;45405;-52
2022/04/19 09:55:03;;;;;;;;;4.50;4.00;;;;;21.57;32.88;100919.50;4972371;28;45508;-51
2022/04/19 09:57:31;;;;;;;;;3.75;3.75;;;;;21.57;33.45;100922.97;4973089;28;45329;-51
2022/04/19 09:59:58;;;;;;;;;5.00;4.00;;;;;21.55;33.07;100909.03;4973067;28;45732;-53
2022/04/19 10:08:11;;;;;;;;;5.25;4.25;;;;;21.59;33.52;100902.66;4976248;28;45663;-60
2022/04/19 10:10:41;;;;;;;;;7.50;4.25;;;;;21.59;33.01;100897.41;4976224;28;45161;-58
2022/04/19 10:13:07;;;;;;;;;3.25;2.00;;;;;21.59;32.80;100894.75;4976358;28;45366;-61
2022/04/19 10:15:33;;;;;;;;;5.50;3.00;;;;;21.58;33.29;100882.47;4976671;28;45412;-52
2022/04/19 10:17:59;;;;;;;;;3.50;3.00;;;;;21.60;33.31;100883.28;4975558;28;45189;-60
2022/04/19 10:20:33;;;;;;;;;5.75;3.00;;;;;21.60;33.16;100880.63;4974527;28;45790;-67
2022/04/19 10:23:03;;;;;;;;;3.75;3.50;;;;;21.60;33.23;100880.63;4975645;28;45296;-66
2022/04/19 10:25:40;;;;;;;;;7.50;3.75;;;;;21.61;32.90;100881.47;4976155;28;45561;-61
2022/04/19 10:28:08;;;;;;;;;4.00;3.00;;;;;21.57;33.29;100870.22;5014650;28;46227;-55
2022/04/19 10:30:35;;;;;;;;;3.50;3.00;;;;;21.60;33.15;100875.34;5094583;27;45842;-61
2022/04/19 10:33:01;;;;;;;;;2.00;2.00;;;;;21.62;33.11;100883.16;5078668;27;45296;-60
2022/04/19 10:35:26;;;;;;;;;7.25;3.00;;;;;21.62;33.19;100877.91;5079026;27;45250;-53
2022/04/19 10:38:20;;;;;;;;;6.25;5.00;;;;;21.62;33.41;100878.75;5078347;27;45353;-64
2022/04/19 10:40:50;;;;;;;;;4.00;4.00;;;;;21.62;33.26;100875.25;5078867;27;45327;-60
2022/04/19 10:43:15;;;;;;;;;2.75;2.00;;;;;21.61;33.47;100865.66;5079255;27;45960;-55
2022/04/19 10:45:41;;;;;;;;;4.75;3.00;;;;;21.62;33.19;100870.84;4990592;28;45682;-60
2022/04/19 10:48:07;;;;;;;;;2.00;2.00;;;;;21.61;33.05;100865.66;4974319;28;46153;-58
2022/04/19 10:50:40;;;;;;;;;5.25;4.75;;;;;21.64;33.11;100862.84;4975640;28;45929;-59
2022/04/19 10:53:07;;;;;;;;;3.00;3.00;;;;;21.65;33.26;100869.81;4974195;28;45479;-58
2022/04/19 10:55:36;;;;;;;;;4.25;3.25;;;;;21.65;33.20;100861.06;4975477;28;45647;-60
2022/04/19 10:58:17;;;;;;;;;3.00;3.00;;;;;21.65;33.24;100861.06;4975370;28;46109;-58
2022/04/19 11:00:54;;;;;;;;;3.00;3.00;;;;;21.65;33.14;100866.34;4975233;28;45347;-54
2022/04/19 11:03:26;;;;;;;;;4.00;4.00;;;;;21.64;33.01;100857.56;4974229;28;45261;-61
2022/04/19 11:05:56;;;;;;;;;4.00;4.00;;;;;21.65;33.40;100853.16;4975495;28;45364;-57
2022/04/19 11:08:24;;;;;;;;;5.50;4.00;;;;;21.65;33.21;100858.41;4973833;28;47169;-58
2022/04/19 11:10:55;;;;;;;;;5.25;3.50;;;;;21.64;33.02;100854.09;4975663;28;45394;-57
2022/04/19 11:13:26;;;;;;;;;5.00;3.75;;;;;21.64;32.91;100854.09;4974059;28;45290;-58
2022/04/19 11:16:03;;;;;;;;;4.00;4.00;;;;;21.62;33.48;100847.09;4975635;28;45429;-61
2022/04/19 11:18:31;;;;;;;;;3.75;3.75;;;;;21.62;33.45;100844.47;4975176;28;45398;-59
2022/04/19 11:21:04;;;;;;;;;4.25;4.00;;;;;21.61;33.15;100840.13;4975642;28;45412;-57
2022/04/19 11:23:42;;;;;;;;;7.50;5.75;;;;;21.61;33.51;100848.03;4975495;28;45297;-57
2022/04/19 11:26:27;;;;;;;;;3.00;3.00;;;;;21.60;33.19;100843.72;4975633;28;45652;-59
2022/04/19 11:29:08;;;;;;;;;1.75;1.75;;;;;21.60;33.64;100838.44;4975172;28;46127;-59
2022/04/19 11:31:33;;;;;;;;;4.50;3.50;;;;;21.60;33.20;100838.44;4975350;28;45244;-59
2022/04/19 11:33:59;;;;;;;;;4.00;3.00;;;;;21.61;33.39;100829.59;4975417;28;45221;-58
2022/04/19 11:36:25;;;;;;;;;4.00;4.00;;;;;21.61;33.09;100839.28;4975621;28;45281;-58
2022/04/19 11:38:50;;;;;;;;;7.00;5.00;;;;;21.61;33.42;100841.91;4975407;28;45353;-61
2022/04/19 11:46:52;;;;;;;;;78.50;65.00;;;;;21.61;33.48;100840.13;4975552;28;45454;-58
2022/04/19 11:49:29;;;;;;;;;76.75;63.00;;;;;21.62;33.80;100833.06;4975126;28;45446;-63
2022/04/19 11:52:00;;;;;;;;;83.00;76.75;;;;;21.61;33.64;100831.34;4974954;28;45357;-63
2022/04/19 11:54:30;;;;;;;;;99.75;88.00;;;;;21.62;33.17;100841.84;4974775;28;45397;-60
2022/04/19 11:57:03;;;;;;;;;95.50;86.00;;;;;21.61;33.45;100840.13;4975300;28;45425;-65
2022/04/19 11:59:36;;;;;;;;;111.75;97.75;;;;;21.60;33.66;100842.88;4974712;28;46187;-67
2022/04/19 12:02:04;;;;;;;;;112.75;100.25;;;;;21.60;33.52;100840.25;4974784;28;45679;-60
2022/04/19 12:04:29;;;;;;;;;119.75;102.50;;;;;21.59;33.55;100836.72;4974747;28;45396;-63
2022/04/19 12:06:58;;;;;;;;;108.75;95.75;;;;;21.60;33.90;100832.31;4975079;28;45327;-66